Time;durP1;ratioP1;P1;durP2;ratioP2;P2;SDS_P1;SDS_P2;PMS_P1;PMS_P2;Temp;Humidity;BMP_temperature;BMP_pressure;BME280_temperature;BME280_humidity;BME280_pressure;Samples;Min_cycle;Max_cycle;Signal;HPM_P1;HPM_P2
2023/04/13 00:01:33;;;;;;;5.25;1.50;;;;;;;;;;4975198;28;20497;-66
2023/04/13 00:04:03;;;;;;;9.35;1.73;;;;;;;;;;4977218;28;20035;-67
2023/04/13 00:06:30;;;;;;;5.20;1.70;;;;;;;;;;4977188;28;20038;-65
2023/04/13 00:08:57;;;;;;;5.25;1.90;;;;;;;;;;4966259;28;20034;-64
2023/04/13 00:11:26;;;;;;;5.53;1.85;;;;;;;;;;4975673;28;20046;-64
2023/04/13 00:13:54;;;;;;;7.80;1.80;;;;;;;;;;4964201;28;20116;-64
2023/04/13 00:16:22;;;;;;;6.72;1.90;;;;;;;;;;4968747;28;20089;-64
2023/04/13 00:18:51;;;;;;;4.13;1.75;;;;;;;;;;4975796;28;20137;-65
2023/04/13 00:21:18;;;;;;;6.00;1.88;;;;;;;;;;4975219;28;20129;-63
2023/04/13 00:23:44;;;;;;;4.88;1.83;;;;;;;;;;4976485;28;20089;-62
2023/04/13 00:26:11;;;;;;;3.65;1.45;;;;;;;;;;4976600;28;20039;-64
2023/04/13 00:28:38;;;;;;;5.95;2.20;;;;;;;;;;4977589;28;20050;-65
2023/04/13 00:31:04;;;;;;;8.65;2.25;;;;;;;;;;4983009;28;20890;-64
2023/04/13 00:33:31;;;;;;;6.90;1.95;;;;;;;;;;4977138;28;20099;-64
2023/04/13 00:35:58;;;;;;;6.82;1.73;;;;;;;;;;4978409;28;20049;-62
2023/04/13 00:38:26;;;;;;;5.57;1.70;;;;;;;;;;4977041;28;20058;-63
2023/04/13 00:40:53;;;;;;;3.85;1.60;;;;;;;;;;4978685;28;20112;-63
2023/04/13 00:43:20;;;;;;;5.63;2.25;;;;;;;;;;4977069;28;20065;-65
2023/04/13 00:45:47;;;;;;;5.75;1.77;;;;;;;;;;4977696;28;20039;-63
2023/04/13 00:48:14;;;;;;;4.78;1.67;;;;;;;;;;4975813;28;20549;-62
2023/04/13 00:50:42;;;;;;;5.97;2.05;;;;;;;;;;4976882;28;20042;-63
2023/04/13 00:53:12;;;;;;;5.55;1.83;;;;;;;;;;4977438;28;20056;-62
2023/04/13 00:55:41;;;;;;;6.07;1.80;;;;;;;;;;4976928;28;20049;-64
2023/04/13 00:58:08;;;;;;;5.80;2.08;;;;;;;;;;4976906;28;20785;-62
2023/04/13 01:00:37;;;;;;;4.65;1.73;;;;;;;;;;4976314;28;20137;-63
2023/04/13 01:03:04;;;;;;;6.28;1.80;;;;;;;;;;4977759;28;20034;-64
2023/04/13 01:05:35;;;;;;;3.80;1.70;;;;;;;;;;4969556;28;20045;-64
2023/04/13 01:08:19;;;;;;;6.35;2.50;;;;;;;;;;4978698;28;20045;-64
2023/04/13 01:10:45;;;;;;;;;;;;;;;;;;4979725;28;20044;-63
2023/04/13 01:13:15;;;;;;;8.65;2.72;;;;;;;;;;4979293;28;19937;-64
2023/04/13 01:15:56;;;;;;;4.80;2.20;;;;;;;;;;4983345;28;20042;-66
2023/04/13 01:18:24;;;;;;;5.47;1.75;;;;;;;;;;4977764;28;20038;-62
2023/04/13 01:20:52;;;;;;;6.57;2.38;;;;;;;;;;4982513;28;20632;-63
2023/04/13 01:23:25;;;;;;;6.13;2.38;;;;;;;;;;4982408;28;20093;-68
2023/04/13 01:25:56;;;;;;;6.60;2.08;;;;;;;;;;4982294;28;20450;-64
2023/04/13 01:28:23;;;;;;;4.10;2.00;;;;;;;;;;4982085;28;20109;-63
2023/04/13 01:30:52;;;;;;;5.78;1.98;;;;;;;;;;4982061;28;20249;-64
2023/04/13 01:33:19;;;;;;;4.80;2.28;;;;;;;;;;4981683;28;20054;-62
2023/04/13 01:35:46;;;;;;;6.65;2.67;;;;;;;;;;4982109;28;20043;-62
2023/04/13 01:38:13;;;;;;;6.18;2.65;;;;;;;;;;4981055;28;20046;-64
2023/04/13 01:40:40;;;;;;;6.55;2.13;;;;;;;;;;4979985;28;20506;-64
2023/04/13 01:43:07;;;;;;;4.47;2.20;;;;;;;;;;4982301;28;20093;-64
2023/04/13 01:45:44;;;;;;;5.32;2.17;;;;;;;;;;4974567;28;20100;-65
2023/04/13 01:48:18;;;;;;;5.15;2.35;;;;;;;;;;4980781;28;20085;-63
2023/04/13 01:50:49;;;;;;;5.20;2.28;;;;;;;;;;4991902;28;20038;-64
2023/04/13 01:53:18;;;;;;;5.15;2.70;;;;;;;;;;4981271;28;20065;-65
2023/04/13 01:55:47;;;;;;;7.90;3.95;;;;;;;;;;4983810;28;20634;-65
2023/04/13 01:58:15;;;;;;;7.82;2.90;;;;;;;;;;4981211;28;20053;-63
2023/04/13 02:00:42;;;;;;;22.67;10.13;;;;;;;;;;4957532;28;20066;-63
2023/04/13 02:03:11;;;;;;;15.88;5.70;;;;;;;;;;4980421;28;20748;-63
2023/04/13 02:05:39;;;;;;;7.50;2.85;;;;;;;;;;4980205;28;20087;-63
2023/04/13 02:08:06;;;;;;;5.45;2.55;;;;;;;;;;4995687;28;20038;-62
2023/04/13 02:10:33;;;;;;;7.20;2.50;;;;;;;;;;4978803;28;20097;-63
2023/04/13 02:13:00;;;;;;;5.47;2.55;;;;;;;;;;4979799;28;20074;-62
2023/04/13 02:15:27;;;;;;;8.05;3.10;;;;;;;;;;4981520;28;20034;-62
2023/04/13 02:17:54;;;;;;;4.97;2.75;;;;;;;;;;4982930;28;20030;-61
2023/04/13 02:20:21;;;;;;;6.65;2.92;;;;;;;;;;4982424;28;20042;-59
2023/04/13 02:22:49;;;;;;;6.40;2.70;;;;;;;;;;4980737;28;20096;-64
2023/04/13 02:25:16;;;;;;;6.72;3.05;;;;;;;;;;4980134;28;20046;-63
2023/04/13 02:27:44;;;;;;;6.43;2.92;;;;;;;;;;4979687;28;20494;-63
2023/04/13 02:30:11;;;;;;;10.45;2.55;;;;;;;;;;4978683;28;20034;-63
2023/04/13 02:32:40;;;;;;;6.30;2.72;;;;;;;;;;4978683;28;20040;-64
2023/04/13 02:35:10;;;;;;;5.65;2.47;;;;;;;;;;4977998;28;20842;-65
2023/04/13 02:37:40;;;;;;;6.57;2.70;;;;;;;;;;4977300;28;20041;-63
2023/04/13 02:40:11;;;;;;;5.60;2.70;;;;;;;;;;4976270;28;20501;-62
2023/04/13 02:42:38;;;;;;;6.43;2.47;;;;;;;;;;4977249;28;20049;-64
2023/04/13 02:45:06;;;;;;;5.53;2.65;;;;;;;;;;4976843;28;20061;-61
2023/04/13 02:47:33;;;;;;;6.00;2.92;;;;;;;;;;4977626;28;20038;-62
2023/04/13 02:50:03;;;;;;;5.75;2.78;;;;;;;;;;4978336;28;21501;-63
2023/04/13 02:52:30;;;;;;;7.68;3.00;;;;;;;;;;4976712;28;20538;-62
2023/04/13 02:54:57;;;;;;;6.93;3.17;;;;;;;;;;4979018;28;20117;-62
2023/04/13 02:57:24;;;;;;;6.32;2.80;;;;;;;;;;4977750;28;20038;-63
2023/04/13 02:59:52;;;;;;;6.63;2.65;;;;;;;;;;4978218;28;20045;-62
2023/04/13 03:02:18;;;;;;;5.88;2.92;;;;;;;;;;4979229;28;20069;-62
2023/04/13 03:04:46;;;;;;;7.25;3.17;;;;;;;;;;4977184;28;20046;-61
2023/04/13 03:07:13;;;;;;;8.00;2.85;;;;;;;;;;4978803;28;20034;-63
2023/04/13 03:09:40;;;;;;;5.93;3.05;;;;;;;;;;4976280;28;20050;-61
2023/04/13 03:12:07;;;;;;;8.02;2.88;;;;;;;;;;4976301;28;20050;-63
2023/04/13 03:14:35;;;;;;;7.15;3.22;;;;;;;;;;4977759;28;20153;-61
2023/04/13 03:17:06;;;;;;;6.57;2.55;;;;;;;;;;4976301;28;20392;-61
2023/04/13 03:19:34;;;;;;;6.00;2.60;;;;;;;;;;4975478;28;20534;-61
2023/04/13 03:22:01;;;;;;;5.65;2.78;;;;;;;;;;4976954;28;20070;-60
2023/04/13 03:24:28;;;;;;;7.25;2.72;;;;;;;;;;4976475;28;21001;-63
2023/04/13 03:26:58;;;;;;;6.72;2.85;;;;;;;;;;4977270;28;20034;-62
2023/04/13 03:29:25;;;;;;;5.80;2.42;;;;;;;;;;4975855;28;20034;-62
2023/04/13 03:31:51;;;;;;;4.60;2.42;;;;;;;;;;4977594;28;20046;-62
2023/04/13 03:34:18;;;;;;;5.80;2.63;;;;;;;;;;4979674;28;20472;-62
2023/04/13 03:36:45;;;;;;;6.68;2.92;;;;;;;;;;4977915;28;20065;-61
2023/04/13 03:39:12;;;;;;;5.80;2.58;;;;;;;;;;4979545;28;20039;-61
2023/04/13 03:41:40;;;;;;;7.70;2.78;;;;;;;;;;4977572;28;20049;-62
2023/04/13 03:44:07;;;;;;;8.57;3.00;;;;;;;;;;4978689;28;20145;-61
2023/04/13 03:46:37;;;;;;;4.72;2.53;;;;;;;;;;4977001;28;20068;-63
2023/04/13 03:49:08;;;;;;;6.53;3.15;;;;;;;;;;4979536;28;20861;-62
2023/04/13 03:51:35;;;;;;;7.55;3.10;;;;;;;;;;4981993;28;20352;-63
2023/04/13 03:54:02;;;;;;;6.68;3.17;;;;;;;;;;4977184;28;20060;-62
2023/04/13 03:56:29;;;;;;;9.25;3.80;;;;;;;;;;4979867;28;20042;-62
2023/04/13 03:58:55;;;;;;;6.93;3.30;;;;;;;;;;4981143;28;20096;-61
2023/04/13 04:01:23;;;;;;;7.22;3.40;;;;;;;;;;4978963;28;20069;-60
2023/04/13 04:03:50;;;;;;;8.27;3.20;;;;;;;;;;4981674;28;20044;-61
2023/04/13 04:06:17;;;;;;;7.13;3.53;;;;;;;;;;4980468;28;20088;-60
2023/04/13 04:08:44;;;;;;;7.20;4.03;;;;;;;;;;4978604;28;20046;-62
2023/04/13 04:11:10;;;;;;;7.80;3.53;;;;;;;;;;4982355;28;20046;-60
2023/04/13 04:13:37;;;;;;;7.50;3.58;;;;;;;;;;4983580;28;20042;-60
2023/04/13 04:16:05;;;;;;;8.52;3.88;;;;;;;;;;4985261;28;20092;-59
2023/04/13 04:18:32;;;;;;;5.93;3.20;;;;;;;;;;4985155;28;20108;-60
2023/04/13 04:21:01;;;;;;;9.63;3.30;;;;;;;;;;4980222;28;20148;-61
2023/04/13 04:23:28;;;;;;;9.07;3.42;;;;;;;;;;4980560;28;20034;-61
2023/04/13 04:25:58;;;;;;;7.85;3.70;;;;;;;;;;4971454;28;20496;-61
2023/04/13 04:28:25;;;;;;;6.72;3.75;;;;;;;;;;4967289;28;20070;-62
2023/04/13 04:30:55;;;;;;;12.07;4.10;;;;;;;;;;4975787;28;20809;-60
2023/04/13 04:33:22;;;;;;;13.45;4.15;;;;;;;;;;4976325;28;20161;-66
2023/04/13 04:35:50;;;;;;;7.15;3.20;;;;;;;;;;4977339;28;20519;-65
2023/04/13 04:38:17;;;;;;;13.30;4.32;;;;;;;;;;4977167;28;20034;-64
2023/04/13 04:40:44;;;;;;;9.27;3.83;;;;;;;;;;4974501;28;20137;-63
2023/04/13 04:43:14;;;;;;;10.38;4.20;;;;;;;;;;4977450;28;20458;-61
2023/04/13 04:45:45;;;;;;;9.05;4.00;;;;;;;;;;4976177;28;20046;-63
2023/04/13 04:48:13;;;;;;;9.77;3.97;;;;;;;;;;4977999;28;20096;-63
2023/04/13 04:50:43;;;;;;;14.80;4.07;;;;;;;;;;4978796;28;20050;-61
2023/04/13 04:53:11;;;;;;;9.30;3.90;;;;;;;;;;4980952;28;20134;-61
2023/04/13 04:55:38;;;;;;;9.50;3.42;;;;;;;;;;4980905;28;20039;-62
2023/04/13 04:58:05;;;;;;;12.85;4.10;;;;;;;;;;4980621;28;20058;-63
2023/04/13 05:00:32;;;;;;;7.90;4.05;;;;;;;;;;4979193;28;20050;-61
2023/04/13 05:02:59;;;;;;;9.00;4.22;;;;;;;;;;4980654;28;20042;-60
2023/04/13 05:05:26;;;;;;;8.13;4.03;;;;;;;;;;4979519;28;20039;-65
2023/04/13 05:07:53;;;;;;;8.02;4.03;;;;;;;;;;4980980;28;20077;-64
2023/04/13 05:10:19;;;;;;;7.45;3.92;;;;;;;;;;4981469;28;20046;-63
2023/04/13 05:12:46;;;;;;;10.13;4.30;;;;;;;;;;4976850;28;20059;-63
2023/04/13 05:15:13;;;;;;;11.60;3.97;;;;;;;;;;4979618;28;20038;-64
2023/04/13 05:17:40;;;;;;;9.73;3.60;;;;;;;;;;4979828;28;20038;-62
2023/04/13 05:20:07;;;;;;;8.85;3.92;;;;;;;;;;4978883;28;20407;-63
2023/04/13 05:22:34;;;;;;;7.80;3.90;;;;;;;;;;4979251;28;20054;-63
2023/04/13 05:25:01;;;;;;;10.52;3.80;;;;;;;;;;4980229;28;20145;-62
2023/04/13 05:27:27;;;;;;;10.13;4.10;;;;;;;;;;4979577;28;20625;-63
2023/04/13 05:29:56;;;;;;;8.75;4.07;;;;;;;;;;4978745;28;20066;-62
2023/04/13 05:32:22;;;;;;;10.00;4.07;;;;;;;;;;4980110;28;20050;-62
2023/04/13 05:34:50;;;;;;;8.43;3.78;;;;;;;;;;4979428;28;20035;-62
2023/04/13 05:37:16;;;;;;;8.07;4.28;;;;;;;;;;4980849;28;20046;-61
2023/04/13 05:39:44;;;;;;;8.00;4.07;;;;;;;;;;4978447;28;20090;-61
2023/04/13 05:42:10;;;;;;;12.50;4.10;;;;;;;;;;4980353;28;20041;-61
2023/04/13 05:44:37;;;;;;;10.68;4.13;;;;;;;;;;4978936;28;20050;-61
2023/04/13 05:47:04;;;;;;;15.13;4.38;;;;;;;;;;4979211;28;20050;-61
2023/04/13 05:49:31;;;;;;;13.57;4.57;;;;;;;;;;4977661;28;20042;-61
2023/04/13 05:51:58;;;;;;;9.45;4.72;;;;;;;;;;4979563;28;20089;-63
2023/04/13 05:54:28;;;;;;;14.50;4.72;;;;;;;;;;4977609;28;20965;-63
2023/04/13 05:56:55;;;;;;;9.65;4.93;;;;;;;;;;4979830;28;20046;-61
2023/04/13 05:59:22;;;;;;;12.65;5.05;;;;;;;;;;4977418;28;20051;-63
2023/04/13 06:01:49;;;;;;;9.05;5.00;;;;;;;;;;4979117;28;20169;-63
2023/04/13 06:04:17;;;;;;;12.60;5.07;;;;;;;;;;4972515;28;20042;-64
2023/04/13 06:06:45;;;;;;;14.00;5.15;;;;;;;;;;4976952;28;20034;-63
2023/04/13 06:09:12;;;;;;;8.98;4.68;;;;;;;;;;4977874;28;20055;-61
2023/04/13 06:11:38;;;;;;;8.18;5.07;;;;;;;;;;4975761;28;20046;-60
2023/04/13 06:14:05;;;;;;;8.73;5.03;;;;;;;;;;4977944;28;20046;-61
2023/04/13 06:16:32;;;;;;;14.25;6.30;;;;;;;;;;4976850;28;20046;-63
2023/04/13 06:19:00;;;;;;;12.95;5.53;;;;;;;;;;4979084;28;20042;-63
2023/04/13 06:21:28;;;;;;;11.75;6.10;;;;;;;;;;4978552;28;20070;-61
2023/04/13 06:23:55;;;;;;;13.98;6.18;;;;;;;;;;4978891;28;20121;-61
2023/04/13 06:26:23;;;;;;;11.48;5.57;;;;;;;;;;4979149;28;20115;-62
2023/04/13 06:28:50;;;;;;;11.52;5.93;;;;;;;;;;4978073;28;20050;-62
2023/04/13 06:31:17;;;;;;;13.85;6.88;;;;;;;;;;4977467;28;20057;-63
2023/04/13 06:33:43;;;;;;;11.77;6.22;;;;;;;;;;4977736;28;20100;-67
2023/04/13 06:36:10;;;;;;;11.55;5.78;;;;;;;;;;4978922;28;20045;-63
2023/04/13 06:38:37;;;;;;;11.07;6.57;;;;;;;;;;4976308;28;20380;-64
2023/04/13 06:41:04;;;;;;;12.45;6.95;;;;;;;;;;4971396;28;20137;-63
2023/04/13 06:43:30;;;;;;;13.52;6.78;;;;;;;;;;4977579;28;20054;-61
2023/04/13 06:46:01;;;;;;;10.30;6.55;;;;;;;;;;4977712;28;20050;-62
2023/04/13 06:48:27;;;;;;;11.55;6.75;;;;;;;;;;4977030;28;20668;-62
2023/04/13 06:50:58;;;;;;;13.25;7.20;;;;;;;;;;4977571;28;20191;-62
2023/04/13 06:53:27;;;;;;;13.95;6.60;;;;;;;;;;4977846;28;20046;-61
2023/04/13 06:55:54;;;;;;;11.13;5.97;;;;;;;;;;4993887;28;20777;-62
2023/04/13 06:58:22;;;;;;;17.23;6.90;;;;;;;;;;4976098;28;20118;-63
2023/04/13 07:00:48;;;;;;;13.88;7.32;;;;;;;;;;4974969;28;21483;-63
2023/04/13 07:03:15;;;;;;;11.77;5.85;;;;;;;;;;4976522;28;20074;-62
2023/04/13 07:05:43;;;;;;;17.02;6.57;;;;;;;;;;4974991;28;20756;-63
2023/04/13 07:08:10;;;;;;;12.82;6.07;;;;;;;;;;4976967;28;20050;-63
2023/04/13 07:10:39;;;;;;;12.70;6.45;;;;;;;;;;4975225;28;20118;-62
2023/04/13 07:13:06;;;;;;;12.68;6.35;;;;;;;;;;4975297;28;20057;-62
2023/04/13 07:15:33;;;;;;;16.80;6.80;;;;;;;;;;4975819;28;20052;-62
2023/04/13 07:17:59;;;;;;;12.68;6.38;;;;;;;;;;4977329;28;20034;-62
2023/04/13 07:20:26;;;;;;;11.38;6.32;;;;;;;;;;4976384;28;20109;-60
2023/04/13 07:22:53;;;;;;;13.80;6.15;;;;;;;;;;4977367;28;20038;-61
2023/04/13 07:25:22;;;;;;;14.55;6.53;;;;;;;;;;4977284;28;20093;-62
2023/04/13 07:27:49;;;;;;;13.85;5.90;;;;;;;;;;4976801;28;20124;-62
2023/04/13 07:30:16;;;;;;;12.70;5.90;;;;;;;;;;4976842;28;20058;-62
2023/04/13 07:32:42;;;;;;;12.15;5.13;;;;;;;;;;4977486;28;20133;-64
2023/04/13 07:35:09;;;;;;;12.23;5.80;;;;;;;;;;4979055;28;20051;-62
2023/04/13 07:37:36;;;;;;;11.60;5.72;;;;;;;;;;4976051;28;20070;-63
2023/04/13 07:40:03;;;;;;;10.75;4.85;;;;;;;;;;4978230;28;20038;-63
2023/04/13 07:42:30;;;;;;;10.00;5.43;;;;;;;;;;4977957;28;20049;-61
2023/04/13 07:44:57;;;;;;;13.18;5.82;;;;;;;;;;4980132;28;20808;-62
2023/04/13 07:47:23;;;;;;;14.82;5.05;;;;;;;;;;4977688;28;20102;-62
2023/04/13 07:49:50;;;;;;;10.90;5.13;;;;;;;;;;4977983;28;20038;-60
2023/04/13 07:52:17;;;;;;;13.32;5.30;;;;;;;;;;4978723;28;20464;-62
2023/04/13 07:54:43;;;;;;;8.90;4.93;;;;;;;;;;4977360;28;20053;-63
2023/04/13 07:57:10;;;;;;;8.80;4.88;;;;;;;;;;4979036;28;20134;-63
2023/04/13 07:59:37;;;;;;;9.50;5.03;;;;;;;;;;4976448;28;20077;-61
2023/04/13 08:02:04;;;;;;;12.95;5.55;;;;;;;;;;4978209;28;20042;-61
2023/04/13 08:04:31;;;;;;;9.95;5.43;;;;;;;;;;4977747;28;20038;-61
2023/04/13 08:07:02;;;;;;;12.23;4.80;;;;;;;;;;4976995;28;20058;-61
2023/04/13 08:09:31;;;;;;;8.18;4.57;;;;;;;;;;4976239;28;20107;-63
2023/04/13 08:11:58;;;;;;;8.95;4.38;;;;;;;;;;4977755;28;20042;-63
2023/04/13 08:14:25;;;;;;;10.70;5.00;;;;;;;;;;4975584;28;20042;-61
2023/04/13 08:16:52;;;;;;;11.98;5.82;;;;;;;;;;4966995;28;20034;-62
2023/04/13 08:19:19;;;;;;;10.38;5.60;;;;;;;;;;4974705;28;20926;-61
2023/04/13 08:21:45;;;;;;;9.65;5.50;;;;;;;;;;4976332;28;20621;-61
2023/04/13 08:24:12;;;;;;;10.65;5.93;;;;;;;;;;4976667;28;21016;-61
2023/04/13 08:26:39;;;;;;;11.15;6.10;;;;;;;;;;4975897;28;20046;-62
2023/04/13 08:29:06;;;;;;;14.30;6.38;;;;;;;;;;4975265;28;20046;-61
2023/04/13 08:31:33;;;;;;;14.27;6.57;;;;;;;;;;4976999;28;20097;-62
2023/04/13 08:34:00;;;;;;;11.73;6.88;;;;;;;;;;4976080;28;20475;-62
2023/04/13 08:36:46;;;;;;;11.65;6.55;;;;;;;;;;4984549;28;20407;-62
2023/04/13 08:39:13;;;;;;;16.05;6.90;;;;;;;;;;4982998;28;20950;-61
2023/04/13 08:41:44;;;;;;;16.80;6.20;;;;;;;;;;4981836;28;20039;-63
2023/04/13 08:44:12;;;;;;;14.75;6.65;;;;;;;;;;4983684;28;20145;-61
2023/04/13 08:46:40;;;;;;;14.85;7.10;;;;;;;;;;4983462;28;20554;-61
2023/04/13 08:49:08;;;;;;;13.82;6.40;;;;;;;;;;4982548;28;20073;-62
2023/04/13 08:51:35;;;;;;;13.50;7.43;;;;;;;;;;4983161;28;20045;-61
2023/04/13 08:54:02;;;;;;;11.20;6.65;;;;;;;;;;4984882;28;20089;-61
2023/04/13 08:56:29;;;;;;;12.65;6.80;;;;;;;;;;4983703;28;20046;-63
2023/04/13 08:59:00;;;;;;;12.38;6.78;;;;;;;;;;4984104;28;20482;-62
2023/04/13 09:01:27;;;;;;;13.93;7.50;;;;;;;;;;4967244;28;20092;-62
2023/04/13 09:03:55;;;;;;;14.88;7.57;;;;;;;;;;4986578;28;20038;-61
2023/04/13 09:06:32;;;;;;;13.45;7.47;;;;;;;;;;4986062;28;20106;-62
2023/04/13 09:08:59;;;;;;;16.08;8.10;;;;;;;;;;4978650;28;20595;-63
2023/04/13 09:11:26;;;;;;;13.50;7.32;;;;;;;;;;4977632;28;20042;-63
2023/04/13 09:13:53;;;;;;;13.45;7.47;;;;;;;;;;4978338;28;20886;-61
2023/04/13 09:16:21;;;;;;;15.50;7.43;;;;;;;;;;4978512;28;20042;-61
2023/04/13 09:18:55;;;;;;;13.38;7.65;;;;;;;;;;4993564;28;20144;-61
2023/04/13 09:21:22;;;;;;;14.52;7.97;;;;;;;;;;4994145;28;20513;-62
2023/04/13 09:23:56;;;;;;;18.30;7.35;;;;;;;;;;4990644;28;20073;-63
2023/04/13 09:26:23;;;;;;;13.40;7.85;;;;;;;;;;4975553;28;20148;-63
2023/04/13 09:28:51;;;;;;;20.42;7.85;;;;;;;;;;4975165;28;20046;-62
2023/04/13 09:31:18;;;;;;;18.40;8.30;;;;;;;;;;4976466;28;20042;-62
2023/04/13 09:33:49;;;;;;;13.98;7.63;;;;;;;;;;4975598;28;20053;-62
2023/04/13 09:36:16;;;;;;;12.75;8.10;;;;;;;;;;4979080;28;20794;-63
2023/04/13 09:38:45;;;;;;;17.02;7.82;;;;;;;;;;4978750;28;20043;-63
2023/04/13 09:41:12;;;;;;;13.77;7.70;;;;;;;;;;4979218;28;20042;-62
2023/04/13 09:43:39;;;;;;;12.63;7.82;;;;;;;;;;4977803;28;20988;-62
2023/04/13 09:46:12;;;;;;;15.55;8.23;;;;;;;;;;4979771;28;20495;-60
2023/04/13 09:48:39;;;;;;;;;;;;;;;;;;4978986;28;20879;-64
2023/04/13 09:51:07;;;;;;;15.13;7.47;;;;;;;;;;4978415;28;20438;-61
2023/04/13 09:53:45;;;;;;;13.35;6.75;;;;;;;;;;4979038;28;20042;-62
2023/04/13 09:56:12;;;;;;;18.98;8.07;;;;;;;;;;4978834;28;20403;-63
2023/04/13 09:58:43;;;;;;;16.35;7.78;;;;;;;;;;4978603;28;20138;-63
2023/04/13 10:01:10;;;;;;;13.60;8.05;;;;;;;;;;4978855;28;20038;-63
2023/04/13 10:03:37;;;;;;;14.65;7.38;;;;;;;;;;4977805;28;20438;-62
2023/04/13 10:06:08;;;;;;;13.48;7.65;;;;;;;;;;4978302;28;20044;-62
2023/04/13 10:08:37;;;;;;;17.60;7.53;;;;;;;;;;4979159;28;20045;-61
2023/04/13 10:11:04;;;;;;;14.63;7.82;;;;;;;;;;4977869;28;20046;-62
2023/04/13 10:13:38;;;;;;;14.45;8.07;;;;;;;;;;4980702;28;20042;-63
2023/04/13 10:16:16;;;;;;;17.27;7.90;;;;;;;;;;4981736;28;20052;-63
2023/04/13 10:18:49;;;;;;;17.67;8.55;;;;;;;;;;4980660;28;20061;-63
2023/04/13 10:21:16;;;;;;;14.30;8.47;;;;;;;;;;4981183;28;20065;-64
2023/04/13 10:23:42;;;;;;;15.18;7.88;;;;;;;;;;4979317;28;20280;-62
2023/04/13 10:26:09;;;;;;;14.80;8.40;;;;;;;;;;4981859;28;20085;-62
2023/04/13 10:28:47;;;;;;;13.98;8.02;;;;;;;;;;4979557;28;21729;-64
2023/04/13 10:31:15;;;;;;;18.02;8.63;;;;;;;;;;4980198;28;20121;-63
2023/04/13 10:33:48;;;;;;;18.35;8.90;;;;;;;;;;4981267;28;20519;-63
2023/04/13 10:36:15;;;;;;;16.27;8.55;;;;;;;;;;4982494;28;20540;-62
2023/04/13 10:38:42;;;;;;;16.58;8.85;;;;;;;;;;4986104;28;20038;-63
2023/04/13 10:41:09;;;;;;;17.45;9.07;;;;;;;;;;4983337;28;20046;-63
2023/04/13 10:43:36;;;;;;;17.15;9.23;;;;;;;;;;4978893;28;20038;-63
2023/04/13 10:46:09;;;;;;;16.08;8.95;;;;;;;;;;4979617;28;20570;-61
2023/04/13 10:48:36;;;;;;;16.85;9.25;;;;;;;;;;4977923;28;20088;-65
2023/04/13 10:51:03;;;;;;;22.52;10.25;;;;;;;;;;4979125;28;20046;-62
2023/04/13 10:53:50;;;;;;;18.38;9.25;;;;;;;;;;5015227;28;21909;-64
2023/04/13 10:56:17;;;;;;;19.42;9.75;;;;;;;;;;5015892;28;20033;-63
2023/04/13 10:58:51;;;;;;;15.60;8.77;;;;;;;;;;5013305;28;20037;-66
2023/04/13 11:01:18;;;;;;;16.60;9.02;;;;;;;;;;5015161;28;20060;-64
2023/04/13 11:03:45;;;;;;;16.83;8.50;;;;;;;;;;5012559;28;20046;-63
2023/04/13 11:06:12;;;;;;;21.60;9.48;;;;;;;;;;4994243;28;20046;-61
2023/04/13 11:08:41;;;;;;;18.42;9.45;;;;;;;;;;5013590;28;20045;-60
2023/04/13 11:11:07;;;;;;;25.38;9.95;;;;;;;;;;5014008;28;20195;-62
2023/04/13 11:13:34;;;;;;;17.67;9.27;;;;;;;;;;5014673;28;20054;-61
2023/04/13 11:16:02;;;;;;;17.30;9.35;;;;;;;;;;5016386;28;20037;-62
2023/04/13 11:18:28;;;;;;;17.75;8.30;;;;;;;;;;5012824;28;20037;-63
2023/04/13 11:20:56;;;;;;;15.13;8.00;;;;;;;;;;5013627;28;20042;-64
2023/04/13 11:23:23;;;;;;;17.25;8.02;;;;;;;;;;5011636;28;20136;-61
2023/04/13 11:25:54;;;;;;;17.42;7.95;;;;;;;;;;5012093;28;20038;-64
2023/04/13 11:28:24;;;;;;;13.05;6.82;;;;;;;;;;5014625;28;20052;-65
2023/04/13 11:30:57;;;;;;;13.98;7.43;;;;;;;;;;5003237;28;20038;-64
2023/04/13 11:33:29;;;;;;;18.05;7.15;;;;;;;;;;4971673;28;20058;-64
2023/04/13 11:36:00;;;;;;;10.80;5.37;;;;;;;;;;4977856;28;20038;-64
2023/04/13 11:38:29;;;;;;;13.50;5.85;;;;;;;;;;4989562;28;20459;-62
2023/04/13 11:41:03;;;;;;;12.20;6.57;;;;;;;;;;4993303;28;20146;-63
2023/04/13 11:43:30;;;;;;;21.90;6.95;;;;;;;;;;4978013;28;20038;-63
2023/04/13 11:45:59;;;;;;;13.07;6.07;;;;;;;;;;4977887;28;20077;-62
2023/04/13 11:48:26;;;;;;;11.52;6.68;;;;;;;;;;4978533;28;20038;-62
2023/04/13 11:50:52;;;;;;;17.00;6.43;;;;;;;;;;4978873;28;20034;-66
2023/04/13 11:53:19;;;;;;;16.45;6.22;;;;;;;;;;4970153;28;20600;-61
2023/04/13 11:55:46;;;;;;;11.00;5.97;;;;;;;;;;4977549;28;20036;-63
2023/04/13 11:58:17;;;;;;;18.65;7.32;;;;;;;;;;4978717;28;20042;-64
2023/04/13 12:00:44;;;;;;;15.00;6.63;;;;;;;;;;4974259;28;20049;-66
2023/04/13 12:03:15;;;;;;;19.23;6.28;;;;;;;;;;4980060;28;20182;-65
2023/04/13 12:05:43;;;;;;;13.20;5.85;;;;;;;;;;4977691;28;20042;-65
2023/04/13 12:08:21;;;;;;;15.77;6.35;;;;;;;;;;4971551;28;20049;-64
2023/04/13 12:10:56;;;;;;;14.50;6.07;;;;;;;;;;4984604;28;20035;-66
2023/04/13 12:13:23;;;;;;;14.13;6.20;;;;;;;;;;4975520;28;20054;-63
2023/04/13 12:15:50;;;;;;;16.45;5.95;;;;;;;;;;4986261;28;20035;-62
2023/04/13 12:18:17;;;;;;;24.95;6.15;;;;;;;;;;4986473;28;20521;-62
2023/04/13 12:20:46;;;;;;;23.60;6.43;;;;;;;;;;4986938;28;20620;-63
2023/04/13 12:23:31;;;;;;;18.13;6.85;;;;;;;;;;4988134;28;20423;-63
2023/04/13 12:25:58;;;;;;;14.90;5.35;;;;;;;;;;4967981;28;20050;-63
2023/04/13 12:28:29;;;;;;;11.90;5.38;;;;;;;;;;4966237;28;20392;-64
2023/04/13 12:31:01;;;;;;;12.80;5.57;;;;;;;;;;4976479;28;21069;-62
2023/04/13 12:33:28;;;;;;;19.95;5.97;;;;;;;;;;4977950;28;22252;-67
2023/04/13 12:35:54;;;;;;;24.52;6.20;;;;;;;;;;4970077;28;20038;-63
2023/04/13 12:38:21;;;;;;;17.75;5.53;;;;;;;;;;4977778;28;20084;-63
2023/04/13 12:40:48;;;;;;;12.52;5.35;;;;;;;;;;4978913;28;20052;-65
2023/04/13 12:43:14;;;;;;;19.73;7.13;;;;;;;;;;4976177;28;20038;-63
2023/04/13 12:45:42;;;;;;;16.67;6.55;;;;;;;;;;4976117;28;20383;-63
2023/04/13 12:48:09;;;;;;;14.57;5.55;;;;;;;;;;4977401;28;20034;-65
2023/04/13 12:50:36;;;;;;;13.43;5.30;;;;;;;;;;4975440;28;20037;-64
2023/04/13 12:53:03;;;;;;;15.32;5.60;;;;;;;;;;4976146;28;20047;-65
2023/04/13 12:55:30;;;;;;;23.17;5.65;;;;;;;;;;4977096;28;20088;-65
2023/04/13 12:57:57;;;;;;;17.40;5.97;;;;;;;;;;4980011;28;20646;-64
2023/04/13 13:00:24;;;;;;;21.20;6.55;;;;;;;;;;4979848;28;20178;-64
2023/04/13 13:02:51;;;;;;;13.02;5.82;;;;;;;;;;4979355;28;20046;-65
2023/04/13 13:05:18;;;;;;;14.50;5.65;;;;;;;;;;4979047;28;20201;-60
2023/04/13 13:07:45;;;;;;;12.23;5.53;;;;;;;;;;4991159;28;20142;-63
2023/04/13 13:10:11;;;;;;;16.13;6.10;;;;;;;;;;4983463;28;20103;-64
2023/04/13 13:12:38;;;;;;;33.42;6.63;;;;;;;;;;4981683;28;20055;-66
2023/04/13 13:15:09;;;;;;;21.20;6.25;;;;;;;;;;4980671;28;20043;-64
2023/04/13 13:17:42;;;;;;;24.23;7.28;;;;;;;;;;4980291;28;20117;-62
2023/04/13 13:20:10;;;;;;;26.38;6.15;;;;;;;;;;4980690;28;20043;-62
2023/04/13 13:22:37;;;;;;;25.13;7.18;;;;;;;;;;4980468;28;20121;-63
2023/04/13 13:25:05;;;;;;;19.00;6.07;;;;;;;;;;4980864;28;20768;-64
2023/04/13 13:27:32;;;;;;;20.35;7.30;;;;;;;;;;4977772;28;20034;-64
2023/04/13 13:30:02;;;;;;;19.48;6.55;;;;;;;;;;4982220;28;20096;-64
2023/04/13 13:32:29;;;;;;;19.52;7.60;;;;;;;;;;4980904;28;20962;-64
2023/04/13 13:34:55;;;;;;;20.33;7.47;;;;;;;;;;4981005;28;20164;-65
2023/04/13 13:37:22;;;;;;;25.85;7.20;;;;;;;;;;4980430;28;20450;-65
2023/04/13 13:39:49;;;;;;;26.05;7.72;;;;;;;;;;4982056;28;20046;-64
2023/04/13 13:42:16;;;;;;;22.08;8.48;;;;;;;;;;4983229;28;20109;-66
2023/04/13 13:44:43;;;;;;;21.17;8.77;;;;;;;;;;4979369;28;20064;-63
2023/04/13 13:47:11;;;;;;;22.55;9.20;;;;;;;;;;4980617;28;20114;-64
2023/04/13 13:49:38;;;;;;;20.13;9.48;;;;;;;;;;4982540;28;20522;-63
2023/04/13 13:52:05;;;;;;;22.15;8.88;;;;;;;;;;4982344;28;20042;-63
2023/04/13 13:54:31;;;;;;;23.80;9.20;;;;;;;;;;4981011;28;20034;-64
2023/04/13 13:56:58;;;;;;;20.60;8.75;;;;;;;;;;4982314;28;20038;-61
2023/04/13 13:59:25;;;;;;;23.08;8.75;;;;;;;;;;4981993;28;20052;-63
2023/04/13 14:01:51;;;;;;;20.55;7.35;;;;;;;;;;5018119;28;20041;-64
2023/04/13 14:04:18;;;;;;;21.13;6.45;;;;;;;;;;5018098;28;20168;-65
2023/04/13 14:06:45;;;;;;;18.27;6.18;;;;;;;;;;5014416;28;20160;-65
2023/04/13 14:09:12;;;;;;;16.65;6.05;;;;;;;;;;5012605;28;20069;-65
2023/04/13 14:11:38;;;;;;;15.50;6.18;;;;;;;;;;5013284;28;20616;-63
2023/04/13 14:14:05;;;;;;;15.93;6.63;;;;;;;;;;5013699;28;20045;-65
2023/04/13 14:16:31;;;;;;;25.20;6.65;;;;;;;;;;5013688;28;20033;-64
2023/04/13 14:18:58;;;;;;;21.13;5.90;;;;;;;;;;5016915;28;20033;-65
2023/04/13 14:21:25;;;;;;;11.50;4.50;;;;;;;;;;5014368;28;20061;-64
2023/04/13 14:23:52;;;;;;;23.50;6.00;;;;;;;;;;4990127;28;20051;-65
2023/04/13 14:26:19;;;;;;;11.18;4.45;;;;;;;;;;5013022;28;21739;-65
2023/04/13 14:28:46;;;;;;;11.73;5.28;;;;;;;;;;4992416;28;20053;-65
2023/04/13 14:31:13;;;;;;;15.40;5.25;;;;;;;;;;5015638;28;20045;-63
2023/04/13 14:33:43;;;;;;;21.70;5.50;;;;;;;;;;4980236;28;20061;-66
2023/04/13 14:36:13;;;;;;;12.70;4.55;;;;;;;;;;4973850;28;20038;-65
2023/04/13 14:38:41;;;;;;;15.40;5.22;;;;;;;;;;4978626;28;20618;-64
2023/04/13 14:41:07;;;;;;;11.05;4.55;;;;;;;;;;4979117;28;20412;-64